Time;durP1;ratioP1;P1;durP2;ratioP2;P2;SDS_P1;SDS_P2;PMS_P1;PMS_P2;Temp;Humidity;BMP_temperature;BMP_pressure;BME280_temperature;BME280_humidity;BME280_pressure;Samples;Min_cycle;Max_cycle;Signal;HPM_P1;HPM_P2
2024/04/22 00:00:15;;;;;;;29.20;23.20;;;;;;;3.75;100.00;99081.82;109547;1253;59827;-75
2024/04/22 00:03:01;;;;;;;31.40;25.60;;;;;;;3.74;100.00;99080.09;109108;1253;66993;-74
2024/04/22 00:05:27;;;;;;;29.70;22.40;;;;;;;3.72;100.00;99074.86;109476;1253;59990;-75
2024/04/22 00:07:54;;;;;;;26.90;23.00;;;;;;;3.71;100.00;99075.62;109490;1253;59887;-73
2024/04/22 00:10:20;;;;;;;29.20;24.10;;;;;;;3.70;100.00;99073.38;109500;1252;60079;-74
2024/04/22 00:12:46;;;;;;;29.60;24.70;;;;;;;3.69;100.00;99072.20;108783;1252;1002497;-75
2024/04/22 00:15:13;;;;;;;28.00;23.60;;;;;;;3.68;100.00;99074.88;109495;1253;59802;-74
2024/04/22 00:17:39;;;;;;;27.40;23.80;;;;;;;3.66;100.00;99077.92;109182;1252;59869;-72
2024/04/22 00:20:06;;;;;;;27.90;23.30;;;;;;;3.66;100.00;99074.41;109491;1252;60190;-73
2024/04/22 00:22:32;;;;;;;29.20;24.70;;;;;;;3.67;100.00;99071.77;109516;1252;59795;-74
2024/04/22 00:24:58;;;;;;;29.90;24.20;;;;;;;3.66;100.00;99073.00;109528;1254;59861;-74
2024/04/22 00:27:25;;;;;;;26.80;22.20;;;;;;;3.66;100.00;99070.38;109546;1252;59903;-75
2024/04/22 00:29:51;;;;;;;22.80;19.60;;;;;;;3.65;100.00;99069.89;109525;1252;59799;-75
2024/04/22 00:32:17;;;;;;;22.50;20.00;;;;;;;3.64;100.00;99069.02;109526;1252;60754;-75
2024/04/22 00:34:46;;;;;;;23.00;18.70;;;;;;;3.64;100.00;99066.58;109459;1252;59791;-75
2024/04/22 00:37:12;;;;;;;22.10;18.80;;;;;;;3.64;100.00;99065.90;109502;1253;60001;-75
2024/04/22 00:39:39;;;;;;;22.00;19.50;;;;;;;3.63;100.00;99063.13;109522;1253;59809;-75
2024/04/22 00:42:05;;;;;;;22.10;18.60;;;;;;;3.63;100.00;99061.90;109518;1252;59736;-75
2024/04/22 00:44:31;;;;;;;22.70;18.40;;;;;;;3.63;100.00;99060.30;109491;1252;60077;-75
2024/04/22 00:46:58;;;;;;;23.10;18.40;;;;;;;3.62;100.00;99062.81;109529;1253;59802;-76
2024/04/22 00:49:24;;;;;;;19.20;17.20;;;;;;;3.61;100.00;99063.91;109497;1251;59682;-75
2024/04/22 00:51:50;;;;;;;18.80;16.90;;;;;;;3.59;100.00;99066.59;109510;1254;59878;-75
2024/04/22 00:54:17;;;;;;;20.60;18.40;;;;;;;3.59;100.00;99072.59;109524;1253;59924;-75
2024/04/22 00:56:45;;;;;;;19.60;17.50;;;;;;;3.58;100.00;99063.30;109504;1253;59948;-75
2024/04/22 00:59:11;;;;;;;19.80;17.60;;;;;;;3.57;100.00;99061.25;109071;1253;59830;-75
2024/04/22 01:01:37;;;;;;;18.20;16.30;;;;;;;3.56;100.00;99063.56;109516;1253;59961;-75
2024/04/22 01:04:04;;;;;;;18.90;17.00;;;;;;;3.55;100.00;99059.72;109503;1252;59767;-75
2024/04/22 01:06:30;;;;;;;20.70;18.40;;;;;;;3.54;100.00;99057.14;109456;1253;59862;-73
2024/04/22 01:08:56;;;;;;;18.40;16.20;;;;;;;3.52;100.00;99057.00;109496;1253;60010;-73
2024/04/22 01:11:23;;;;;;;19.90;17.60;;;;;;;3.51;100.00;99057.39;109514;1252;59826;-75
2024/04/22 01:13:49;;;;;;;18.60;16.70;;;;;;;3.51;100.00;99058.13;109536;1253;60242;-73
2024/04/22 01:16:15;;;;;;;19.10;16.10;;;;;;;3.50;100.00;99058.14;109544;1252;59836;-76
2024/04/22 01:18:42;;;;;;;18.70;16.40;;;;;;;3.48;100.00;99051.70;109541;1253;60025;-75
2024/04/22 01:21:08;;;;;;;19.50;17.20;;;;;;;3.50;100.00;99053.59;109493;1252;59926;-75
2024/04/22 01:23:36;;;;;;;19.50;17.20;;;;;;;3.51;100.00;99057.77;109515;1253;60173;-74
2024/04/22 01:26:05;;;;;;;18.20;16.10;;;;;;;3.50;100.00;99056.56;109509;1253;60064;-74
2024/04/22 01:28:31;;;;;;;19.10;17.10;;;;;;;3.48;100.00;99056.63;109463;1253;65665;-75
2024/04/22 01:30:58;;;;;;;19.40;17.10;;;;;;;3.48;100.00;99056.46;109516;1253;59819;-75
2024/04/22 01:33:24;;;;;;;19.30;16.70;;;;;;;3.49;100.00;99053.46;109154;1253;59963;-73
2024/04/22 01:35:50;;;;;;;21.90;16.60;;;;;;;3.49;100.00;99056.61;109510;1252;59794;-74
2024/04/22 01:38:16;;;;;;;20.20;17.30;;;;;;;3.48;100.00;99059.83;109513;1255;59858;-74
2024/04/22 01:40:43;;;;;;;20.60;17.60;;;;;;;3.47;100.00;99061.61;109511;1253;60299;-74
2024/04/22 01:43:09;;;;;;;18.70;16.60;;;;;;;3.45;100.00;99058.88;109460;1253;60162;-73
2024/04/22 01:45:36;;;;;;;22.90;17.70;;;;;;;3.44;100.00;99059.44;109476;1252;60059;-75
2024/04/22 01:48:02;;;;;;;18.30;16.40;;;;;;;3.43;100.00;99059.83;109179;1253;59836;-75
2024/04/22 01:50:28;;;;;;;20.00;16.80;;;;;;;3.42;100.00;99065.66;109498;1253;59989;-76
2024/04/22 01:52:56;;;;;;;20.10;17.90;;;;;;;3.41;100.00;99064.97;109575;1253;59821;-74
2024/04/22 01:55:23;;;;;;;18.60;16.30;;;;;;;3.41;100.00;99062.34;109495;1253;60037;-74
2024/04/22 01:57:49;;;;;;;18.60;16.20;;;;;;;3.40;100.00;99063.27;109456;1253;64062;-75
2024/04/22 02:00:28;;;;;;;19.40;16.50;;;;;;;3.39;100.00;99062.27;109507;1252;59869;-75
2024/04/22 02:02:55;;;;;;;17.70;14.20;;;;;;;3.38;100.00;99064.58;109483;1252;59752;-76
2024/04/22 02:05:21;;;;;;;15.70;14.00;;;;;;;3.36;100.00;99064.30;109456;1253;59755;-73
2024/04/22 02:07:47;;;;;;;19.70;16.40;;;;;;;3.34;100.00;99061.56;109482;1253;60102;-75
2024/04/22 02:10:14;;;;;;;16.10;13.30;;;;;;;3.32;100.00;99060.58;109104;1253;60765;-74
2024/04/22 02:12:40;;;;;;;16.30;13.10;;;;;;;3.30;100.00;99062.38;109516;1252;59793;-76
2024/04/22 02:15:07;;;;;;;14.90;12.90;;;;;;;3.29;100.00;99061.02;109504;1252;59858;-73
2024/04/22 02:17:33;;;;;;;15.80;14.10;;;;;;;3.29;100.00;99060.50;109531;1252;59888;-74
2024/04/22 02:19:59;;;;;;;15.20;13.50;;;;;;;3.28;100.00;99063.16;109526;1253;59782;-74
2024/04/22 02:22:25;;;;;;;17.10;15.30;;;;;;;3.26;100.00;99065.17;109488;1252;59861;-74
2024/04/22 02:24:52;;;;;;;19.30;16.10;;;;;;;3.25;100.00;99065.20;109157;1253;59779;-76
2024/04/22 02:27:18;;;;;;;18.60;16.30;;;;;;;3.25;100.00;99065.03;109513;1256;60242;-74
2024/04/22 02:29:44;;;;;;;16.90;15.20;;;;;;;3.26;100.00;99067.46;109510;1253;60206;-75
2024/04/22 02:32:11;;;;;;;20.50;16.50;;;;;;;3.25;100.00;99065.05;109504;1255;59860;-74
2024/04/22 02:34:37;;;;;;;20.20;16.20;;;;;;;3.25;100.00;99065.05;109517;1252;59853;-75
2024/04/22 02:37:03;;;;;;;19.00;16.90;;;;;;;3.24;100.00;99065.79;109471;1253;59877;-74
2024/04/22 02:39:30;;;;;;;19.00;15.40;;;;;;;3.19;100.00;99061.91;109548;1252;59771;-74
2024/04/22 02:41:56;;;;;;;20.80;17.50;;;;;;;3.17;100.00;99063.37;109543;1252;59771;-74
2024/04/22 02:44:22;;;;;;;23.60;17.50;;;;;;;3.14;100.00;99068.08;109517;1253;59848;-74
2024/04/22 02:46:49;;;;;;;21.80;18.40;;;;;;;3.11;100.00;99068.54;109528;1253;60093;-75
2024/04/22 02:49:15;;;;;;;19.70;17.00;;;;;;;3.09;100.00;99075.10;109510;1253;59869;-74
2024/04/22 02:51:41;;;;;;;23.00;19.90;;;;;;;3.06;100.00;99073.27;109542;1253;59795;-74
2024/04/22 02:54:07;;;;;;;21.40;19.00;;;;;;;3.03;100.00;99077.94;109517;1252;60057;-73
2024/04/22 02:56:34;;;;;;;25.20;19.90;;;;;;;3.01;100.00;99076.41;109469;1253;59894;-74
2024/04/22 02:59:00;;;;;;;21.20;18.90;;;;;;;2.99;100.00;99078.59;109504;1253;60970;-75
2024/04/22 03:01:26;;;;;;;22.20;19.50;;;;;;;2.96;100.00;99082.02;109437;1252;59612;-74
2024/04/22 03:03:53;;;;;;;22.50;18.80;;;;;;;2.94;100.00;99080.70;109507;1252;60158;-76
2024/04/22 03:06:19;;;;;;;24.20;19.70;;;;;;;2.88;100.00;99081.24;109504;1253;59841;-74
2024/04/22 03:08:45;;;;;;;22.80;19.20;;;;;;;2.84;100.00;99082.98;109463;1252;59848;-73
2024/04/22 03:11:12;;;;;;;22.40;20.00;;;;;;;2.78;100.00;99082.33;109452;1253;59788;-74
2024/04/22 03:13:38;;;;;;;19.60;17.10;;;;;;;2.74;100.00;99083.48;109553;1253;59934;-73
2024/04/22 03:16:04;;;;;;;20.80;17.80;;;;;;;2.71;100.00;99086.77;109477;1252;59740;-74
2024/04/22 03:18:31;;;;;;;23.00;19.80;;;;;;;2.66;100.00;99086.20;109482;1253;59878;-73
2024/04/22 03:20:57;;;;;;;24.90;19.90;;;;;;;2.63;100.00;99083.15;109459;1254;59982;-72
2024/04/22 03:23:23;;;;;;;25.40;19.10;;;;;;;2.61;100.00;99086.39;109482;1252;59762;-74
2024/04/22 03:25:50;;;;;;;21.90;17.80;;;;;;;2.58;100.00;99094.19;109482;1254;59802;-74
2024/04/22 03:28:16;;;;;;;25.10;20.40;;;;;;;2.57;100.00;99091.44;109155;1253;60138;-73
2024/04/22 03:30:42;;;;;;;20.70;17.80;;;;;;;2.54;100.00;99092.58;109551;1253;60130;-72
2024/04/22 03:33:09;;;;;;;21.50;17.40;;;;;;;2.50;100.00;99093.59;109493;1253;59813;-73
2024/04/22 03:35:35;;;;;;;26.40;17.90;;;;;;;2.46;100.00;99098.45;109516;1253;60059;-72
2024/04/22 03:38:01;;;;;;;21.10;16.50;;;;;;;2.40;100.00;99103.19;109496;1253;60090;-73
2024/04/22 03:40:28;;;;;;;20.30;18.10;;;;;;;2.35;100.00;99104.73;109487;1253;60612;-74
2024/04/22 03:42:54;;;;;;;24.20;19.10;;;;;;;2.33;100.00;99111.30;109499;1253;59840;-73
2024/04/22 03:45:20;;;;;;;23.10;19.00;;;;;;;2.31;100.00;99115.05;109492;1254;59765;-74
2024/04/22 03:50:31;;;;;;;23.80;18.10;;;;;;;2.28;100.00;99115.33;109493;1253;59802;-73
2024/04/22 03:52:58;;;;;;;23.80;18.50;;;;;;;2.24;100.00;99117.58;109482;1253;60077;-73
2024/04/22 03:55:24;;;;;;;26.60;20.20;;;;;;;2.22;100.00;99117.11;109042;1252;60058;-73
2024/04/22 03:57:50;;;;;;;27.00;21.20;;;;;;;2.21;100.00;99120.11;109458;1252;59907;-73
2024/04/22 04:00:17;;;;;;;27.60;19.30;;;;;;;2.20;100.00;99123.46;109458;1253;60141;-73
2024/04/22 04:02:43;;;;;;;23.60;18.00;;;;;;;2.19;100.00;99126.66;109519;1252;60289;-71
2024/04/22 04:05:09;;;;;;;19.30;14.40;;;;;;;2.17;100.00;99131.24;109497;1254;59837;-73
2024/04/22 04:07:36;;;;;;;20.30;16.10;;;;;;;2.16;100.00;99125.34;109484;1252;60325;-74
2024/04/22 04:10:02;;;;;;;21.20;16.20;;;;;;;2.15;100.00;99131.14;108698;1252;1002957;-72
2024/04/22 04:12:29;;;;;;;18.90;14.40;;;;;;;2.15;100.00;99135.68;109413;1254;59811;-75
2024/04/22 04:14:55;;;;;;;18.40;14.70;;;;;;;2.13;100.00;99137.50;109494;1254;59875;-73
2024/04/22 04:17:22;;;;;;;20.70;15.60;;;;;;;2.16;100.00;99141.64;109485;1254;59753;-73
2024/04/22 04:19:48;;;;;;;18.20;13.90;;;;;;;2.17;100.00;99143.19;109504;1252;60159;-73
2024/04/22 04:22:14;;;;;;;18.30;15.40;;;;;;;2.16;100.00;99145.13;109447;1253;60105;-73
2024/04/22 04:24:41;;;;;;;19.30;15.70;;;;;;;2.19;100.00;99149.26;109482;1251;59751;-74
2024/04/22 04:27:07;;;;;;;16.90;14.70;;;;;;;2.22;100.00;99150.92;109484;1253;59839;-74
2024/04/22 04:29:33;;;;;;;17.10;15.30;;;;;;;2.22;100.00;99154.44;109480;1253;60142;-74
2024/04/22 04:31:59;;;;;;;17.50;15.20;;;;;;;2.23;100.00;99157.20;109410;1253;59851;-74
2024/04/22 04:34:26;;;;;;;18.10;16.20;;;;;;;2.24;100.00;99161.38;109439;1253;59844;-75
2024/04/22 04:36:52;;;;;;;20.50;16.70;;;;;;;2.25;100.00;99164.15;109460;1253;59951;-74
2024/04/22 04:39:19;;;;;;;22.60;17.60;;;;;;;2.28;100.00;99163.02;109428;1253;59875;-75
2024/04/22 04:41:45;;;;;;;22.10;17.80;;;;;;;2.30;100.00;99165.22;109444;1253;60039;-76
2024/04/22 04:44:11;;;;;;;20.50;17.40;;;;;;;2.33;100.00;99166.69;109472;1252;60168;-74
2024/04/22 04:46:38;;;;;;;22.30;18.60;;;;;;;2.42;100.00;99167.83;109396;1253;59777;-72
2024/04/22 04:49:04;;;;;;;21.90;18.50;;;;;;;2.49;100.00;99165.52;109463;1252;60109;-74
2024/04/22 04:51:30;;;;;;;26.30;20.70;;;;;;;2.54;100.00;99168.68;109496;1253;59955;-74
2024/04/22 04:53:57;;;;;;;20.40;18.30;;;;;;;2.58;100.00;99168.56;109449;1253;60006;-74
2024/04/22 04:56:23;;;;;;;21.90;19.60;;;;;;;2.57;100.00;99170.16;109470;1254;59885;-73
2024/04/22 04:58:49;;;;;;;21.40;19.00;;;;;;;2.60;100.00;99169.73;109444;1252;59839;-74
2024/04/22 05:01:16;;;;;;;24.50;21.70;;;;;;;2.61;100.00;99170.75;109465;1253;59827;-74
2024/04/22 05:03:42;;;;;;;24.30;21.30;;;;;;;2.57;100.00;99175.60;109422;1253;59933;-74
2024/04/22 05:06:08;;;;;;;22.20;18.50;;;;;;;2.55;100.00;99177.77;109490;1251;59909;-75
2024/04/22 05:08:35;;;;;;;20.40;18.20;;;;;;;2.50;100.00;99184.05;109551;1251;59740;-76
2024/04/22 05:11:04;;;;;;;20.70;18.40;;;;;;;2.48;100.00;99189.73;109505;1251;59779;-75
2024/04/22 05:13:30;;;;;;;21.50;17.50;;;;;;;2.54;100.00;99192.37;109529;1251;59823;-75
2024/04/22 05:15:56;;;;;;;18.80;16.40;;;;;;;2.61;100.00;99191.09;109540;1251;59872;-75
2024/04/22 05:18:23;;;;;;;21.70;19.10;;;;;;;2.72;100.00;99193.91;109568;1251;59885;-75
2024/04/22 05:20:50;;;;;;;22.50;19.40;;;;;;;2.82;100.00;99197.27;109327;1251;59895;-75
2024/04/22 05:23:17;;;;;;;20.70;18.20;;;;;;;2.90;100.00;99197.52;109547;1251;59926;-74
2024/04/22 05:25:43;;;;;;;20.30;17.50;;;;;;;2.97;100.00;99198.20;109351;1251;59920;-76
2024/04/22 05:28:09;;;;;;;20.20;17.20;;;;;;;3.01;100.00;99196.64;109558;1251;60093;-74
2024/04/22 05:30:35;;;;;;;18.90;17.00;;;;;;;3.09;100.00;99197.79;109566;1251;59968;-74
2024/04/22 05:36:09;;;;;;;19.30;17.20;;;;;;;3.13;100.00;99197.30;109535;1251;59910;-74
2024/04/22 05:38:33;;;;;;;21.40;19.20;;;;;;;3.36;100.00;99200.58;109523;1251;59857;-75
2024/04/22 05:40:59;;;;;;;23.90;20.80;;;;;;;3.46;100.00;99197.23;109549;1251;65633;-74
2024/04/22 05:43:26;;;;;;;21.70;19.40;;;;;;;3.45;100.00;99199.73;109529;1251;59708;-74
2024/04/22 05:45:53;;;;;;;19.40;17.50;;;;;;;3.39;100.00;99200.29;109515;1251;59939;-74
2024/04/22 05:48:19;;;;;;;22.00;19.60;;;;;;;3.32;100.00;99201.07;109525;1251;59698;-74
2024/04/22 05:50:46;;;;;;;19.20;17.20;;;;;;;3.30;100.00;99201.83;109552;1251;59691;-74
2024/04/22 05:53:12;;;;;;;18.40;16.50;;;;;;;3.36;100.00;99203.91;109366;1251;59868;-74
2024/04/22 05:55:39;;;;;;;16.20;14.50;;;;;;;3.40;100.00;99205.86;109515;1251;59852;-75
2024/04/22 05:58:05;;;;;;;17.80;16.00;;;;;;;3.47;100.00;99207.92;109546;1251;59800;-74
2024/04/22 06:00:32;;;;;;;19.80;17.80;;;;;;;3.55;100.00;99210.63;109498;1251;60096;-75
2024/04/22 06:02:58;;;;;;;16.60;14.90;;;;;;;3.61;100.00;99210.77;109534;1251;59808;-76
2024/04/22 06:05:24;;;;;;;18.80;16.90;;;;;;;3.65;100.00;99211.66;109572;1251;60002;-75
2024/04/22 06:07:51;;;;;;;18.20;16.40;;;;;;;3.72;100.00;99211.77;109578;1251;59870;-74
2024/04/22 06:10:17;;;;;;;19.20;17.20;;;;;;;3.80;100.00;99212.92;109548;1251;60333;-74
2024/04/22 06:12:43;;;;;;;16.50;14.90;;;;;;;3.90;100.00;99218.71;109487;1251;59960;-75
2024/04/22 06:15:10;;;;;;;15.20;13.60;;;;;;;3.98;100.00;99218.20;109548;1251;59963;-77
2024/04/22 06:17:36;;;;;;;14.80;13.30;;;;;;;4.04;100.00;99214.68;109359;1251;59823;-76
2024/04/22 06:20:02;;;;;;;16.40;13.80;;;;;;;4.10;100.00;99215.33;109578;1251;59865;-75
2024/04/22 06:22:29;;;;;;;15.90;14.30;;;;;;;4.18;100.00;99217.13;109361;1251;59759;-74
2024/04/22 06:24:55;;;;;;;14.10;12.70;;;;;;;4.24;100.00;99223.97;109552;1251;60048;-75
2024/04/22 06:27:21;;;;;;;13.70;11.80;;;;;;;4.28;100.00;99227.14;109559;1251;59838;-76
2024/04/22 06:29:48;;;;;;;14.70;11.60;;;;;;;4.39;100.00;99227.96;109581;1251;59848;-75
2024/04/22 06:32:14;;;;;;;13.40;11.90;;;;;;;4.45;100.00;99229.83;109319;1251;59926;-75
2024/04/22 06:34:40;;;;;;;14.40;12.50;;;;;;;4.49;100.00;99230.73;109526;1251;59759;-75
2024/04/22 06:37:07;;;;;;;14.90;12.40;;;;;;;4.48;100.00;99233.43;109547;1251;59749;-74
2024/04/22 06:39:33;;;;;;;15.10;13.10;;;;;;;4.34;100.00;99240.48;109543;1251;59751;-74
2024/04/22 06:41:59;;;;;;;14.60;13.20;;;;;;;4.28;100.00;99243.69;109508;1251;60154;-74
2024/04/22 06:44:26;;;;;;;14.70;13.20;;;;;;;4.26;100.00;99249.02;109544;1251;59822;-75
2024/04/22 06:46:52;;;;;;;13.70;12.20;;;;;;;4.21;100.00;99247.81;109364;1251;60235;-76
2024/04/22 06:49:18;;;;;;;14.30;12.80;;;;;;;4.12;100.00;99249.72;109572;1251;59890;-73
2024/04/22 06:51:44;;;;;;;13.50;12.10;;;;;;;4.06;100.00;99249.41;109572;1251;59893;-76
2024/04/22 06:54:11;;;;;;;13.10;11.70;;;;;;;4.04;100.00;99250.02;109550;1251;59772;-75
2024/04/22 06:56:37;;;;;;;13.40;12.10;;;;;;;3.96;100.00;99253.98;109525;1251;59891;-75
2024/04/22 06:59:03;;;;;;;13.60;12.20;;;;;;;3.93;100.00;99254.98;109550;1251;59813;-75
2024/04/22 07:01:30;;;;;;;14.40;13.10;;;;;;;3.97;100.00;99254.30;109563;1251;59808;-75
2024/04/22 07:03:57;;;;;;;14.90;13.30;;;;;;;3.99;100.00;99256.36;109547;1250;59822;-76
2024/04/22 07:06:24;;;;;;;13.20;11.90;;;;;;;3.97;100.00;99257.13;109554;1251;60152;-74
2024/04/22 07:08:50;;;;;;;13.30;11.60;;;;;;;4.05;100.00;99261.74;109541;1251;65075;-74
2024/04/22 07:11:17;;;;;;;13.40;12.00;;;;;;;4.21;100.00;99266.45;109562;1251;60116;-76
2024/04/22 07:13:43;;;;;;;12.90;11.70;;;;;;;4.31;100.00;99270.66;109557;1250;59834;-74
2024/04/22 07:16:10;;;;;;;11.10;9.40;;;;;;;4.31;100.00;99273.98;109515;1251;60295;-75
2024/04/22 07:18:36;;;;;;;9.90;8.70;;;;;;;4.26;100.00;99274.36;109418;1251;59950;-74
2024/04/22 07:21:02;;;;;;;9.60;7.70;;;;;;;4.27;100.00;99275.54;109530;1251;59739;-75
2024/04/22 07:23:28;;;;;;;12.20;10.70;;;;;;;4.33;100.00;99281.84;109513;1251;59864;-76
2024/04/22 07:25:55;;;;;;;10.10;8.40;;;;;;;4.50;100.00;99278.92;109586;1251;59746;-75
2024/04/22 07:28:21;;;;;;;8.90;8.00;;;;;;;4.65;100.00;99278.19;109591;1251;59849;-74
2024/04/22 07:30:48;;;;;;;7.80;7.20;;;;;;;4.73;100.00;99282.95;109522;1251;60125;-74
2024/04/22 07:33:14;;;;;;;7.90;7.20;;;;;;;4.91;100.00;99285.78;109568;1251;59893;-77
2024/04/22 07:35:47;;;;;;;8.10;7.10;;;;;;;5.06;100.00;99281.48;109541;1251;60045;-76
2024/04/22 07:38:20;;;;;;;8.70;7.80;;;;;;;5.15;100.00;99279.92;109563;1251;60804;-75
2024/04/22 07:40:56;;;;;;;9.10;8.30;;;;;;;5.21;100.00;99279.85;109541;1251;65652;-75
2024/04/22 07:43:23;;;;;;;10.40;9.30;;;;;;;5.32;100.00;99283.11;109566;1251;59867;-76
2024/04/22 07:45:49;;;;;;;9.80;7.80;;;;;;;5.43;100.00;99283.53;109562;1251;64072;-75
2024/04/22 07:48:15;;;;;;;9.50;8.70;;;;;;;5.42;100.00;99288.84;109549;1251;59844;-75
2024/04/22 07:50:42;;;;;;;10.40;9.30;;;;;;;5.41;100.00;99293.09;109555;1251;59832;-76
2024/04/22 07:53:08;;;;;;;13.70;10.10;;;;;;;5.36;100.00;99294.21;109607;1251;59840;-74
2024/04/22 07:55:36;;;;;;;12.10;9.90;;;;;;;5.35;100.00;99296.36;109574;1250;59841;-75
2024/04/22 07:58:03;;;;;;;12.10;10.90;;;;;;;5.39;100.00;99299.00;109548;1251;64080;-75
2024/04/22 08:00:29;;;;;;;12.20;10.10;;;;;;;5.46;100.00;99299.27;109242;1251;59839;-75
2024/04/22 08:02:56;;;;;;;8.30;7.50;;;;;;;5.57;100.00;99298.27;109528;1251;59692;-75
2024/04/22 08:05:23;;;;;;;6.40;5.80;;;;;;;5.70;100.00;99301.25;109537;1251;66889;-75
2024/04/22 08:07:56;;;;;;;8.00;7.20;;;;;;;5.84;100.00;99307.17;109507;1251;59807;-76
2024/04/22 08:10:23;;;;;;;8.10;7.10;;;;;;;6.08;100.00;99302.14;109490;1251;63735;-77
2024/04/22 08:12:49;;;;;;;7.20;6.00;;;;;;;6.27;100.00;99304.46;109423;1252;59841;-75
2024/04/22 08:15:16;;;;;;;8.10;6.10;;;;;;;6.44;100.00;99305.29;109400;1252;59822;-77
2024/04/22 08:17:42;;;;;;;7.20;6.40;;;;;;;6.64;100.00;99305.81;109394;1252;59729;-75
2024/04/22 08:20:09;;;;;;;6.30;5.70;;;;;;;6.83;100.00;99305.79;109450;1252;59795;-74
2024/04/22 08:22:35;;;;;;;5.50;4.90;;;;;;;6.97;100.00;99301.95;109401;1252;59804;-74
2024/04/22 08:25:02;;;;;;;6.80;4.70;;;;;;;6.96;100.00;99307.50;109428;1252;59888;-76
2024/04/22 08:27:29;;;;;;;4.50;3.50;;;;;;;6.75;100.00;99312.18;109425;1252;60156;-76
2024/04/22 08:29:58;;;;;;;6.40;4.50;;;;;;;6.61;100.00;99312.98;109452;1252;65285;-76
2024/04/22 08:32:24;;;;;;;4.80;4.30;;;;;;;6.57;100.00;99313.70;109456;1252;60262;-75
2024/04/22 08:34:51;;;;;;;5.20;4.70;;;;;;;6.68;100.00;99317.12;109394;1252;62804;-76
2024/04/22 08:37:17;;;;;;;6.20;5.50;;;;;;;6.83;100.00;99316.91;109119;1252;59870;-74
2024/04/22 08:39:44;;;;;;;7.50;5.50;;;;;;;6.97;100.00;99317.52;109438;1252;59875;-75
2024/04/22 08:42:12;;;;;;;8.20;5.70;;;;;;;6.96;100.00;99318.80;109417;1252;66513;-75
2024/04/22 08:44:39;;;;;;;6.00;5.40;;;;;;;7.01;100.00;99318.94;109439;1252;60309;-74
2024/04/22 08:47:06;;;;;;;5.40;4.90;;;;;;;7.12;100.00;99315.40;109413;1252;64242;-75
2024/04/22 08:49:33;;;;;;;7.00;5.20;;;;;;;7.24;100.00;99312.52;109429;1252;59780;-76
2024/04/22 08:51:59;;;;;;;6.50;4.80;;;;;;;7.31;100.00;99316.97;109457;1252;59811;-75
2024/04/22 08:54:26;;;;;;;6.60;5.10;;;;;;;7.37;100.00;99317.73;109433;1252;60052;-75
2024/04/22 08:56:54;;;;;;;5.90;4.90;;;;;;;7.55;100.00;99317.90;109475;1252;60171;-74
2024/04/22 08:59:20;;;;;;;10.80;6.90;;;;;;;7.72;100.00;99317.60;109438;1252;64052;-74
2024/04/22 09:02:00;;;;;;;10.40;6.90;;;;;;;7.84;100.00;99313.84;109456;1255;59880;-74
2024/04/22 09:04:27;;;;;;;6.90;5.00;;;;;;;7.95;100.00;99312.72;109485;1252;60269;-73
2024/04/22 09:06:53;;;;;;;6.90;5.60;;;;;;;7.94;100.00;99317.34;109498;1252;66968;-74
2024/04/22 09:09:22;;;;;;;6.90;6.00;;;;;;;7.81;100.00;99319.24;109516;1252;59832;-77
2024/04/22 09:11:50;;;;;;;7.30;5.30;;;;;;;7.70;100.00;99317.70;109450;1252;63718;-74
2024/04/22 09:14:16;;;;;;;6.40;5.80;;;;;;;7.64;100.00;99322.96;109475;1252;59804;-73
2024/04/22 09:16:43;;;;;;;7.60;6.50;;;;;;;7.51;100.00;99325.70;109452;1252;59898;-75
2024/04/22 09:19:09;;;;;;;5.80;5.20;;;;;;;7.46;100.00;99325.92;109436;1252;59932;-72
2024/04/22 09:21:36;;;;;;;6.20;5.50;;;;;;;7.34;100.00;99330.59;109488;1252;60863;-76
2024/04/22 09:24:06;;;;;;;6.40;5.10;;;;;;;7.26;100.00;99334.17;109382;1253;64122;-75
2024/04/22 09:26:33;;;;;;;6.50;4.80;;;;;;;7.36;100.00;99337.39;109469;1252;59847;-75
2024/04/22 09:29:02;;;;;;;5.30;4.80;;;;;;;7.53;100.00;99339.04;109503;1251;59757;-76
2024/04/22 09:31:29;;;;;;;5.60;4.20;;;;;;;7.74;100.00;99336.77;109298;1254;66743;-75
2024/04/22 09:33:56;;;;;;;8.00;4.80;;;;;;;8.00;100.00;99336.54;109499;1252;60115;-75
2024/04/22 09:36:25;;;;;;;5.30;4.30;;;;;;;8.19;100.00;99336.60;109417;1251;64044;-75
2024/04/22 09:38:53;;;;;;;7.60;4.20;;;;;;;8.37;100.00;99330.91;109436;1252;59798;-76
2024/04/22 09:41:20;;;;;;;6.40;5.20;;;;;;;8.59;100.00;99333.50;109469;1252;59948;-75
2024/04/22 09:43:51;;;;;;;6.20;5.60;;;;;;;8.52;100.00;99331.88;109425;1252;69638;-75
2024/04/22 09:46:18;;;;;;;6.20;5.00;;;;;;;8.35;100.00;99338.83;109456;1253;59786;-75
2024/04/22 09:48:46;;;;;;;6.00;5.10;;;;;;;8.25;100.00;99337.02;109418;1252;64033;-76
2024/04/22 09:51:13;;;;;;;4.80;4.30;;;;;;;8.38;100.00;99335.11;109504;1251;59876;-75
2024/04/22 09:53:41;;;;;;;5.10;4.50;;;;;;;8.47;100.00;99335.19;109583;1251;59854;-75
2024/04/22 09:56:10;;;;;;;5.70;4.20;;;;;;;8.15;100.00;99335.91;109282;1251;66847;-74
2024/04/22 09:58:39;;;;;;;5.70;4.00;;;;;;;7.89;100.00;99338.64;109560;1251;60113;-74
2024/04/22 10:01:05;;;;;;;5.10;4.00;;;;;;;7.77;100.00;99338.73;109586;1251;64225;-76
2024/04/22 10:03:32;;;;;;;4.20;3.80;;;;;;;7.68;100.00;99335.31;109526;1251;59830;-76
2024/04/22 10:06:00;;;;;;;5.50;4.20;;;;;;;7.64;100.00;99332.83;109513;1251;59962;-76
2024/04/22 10:08:26;;;;;;;4.90;3.90;;;;;;;7.69;100.00;99333.46;109282;1250;65211;-75
2024/04/22 10:10:52;;;;;;;4.50;4.00;;;;;;;7.74;100.00;99331.45;109578;1251;59729;-75
2024/04/22 10:13:28;;;;;;;7.70;4.30;;;;;;;7.90;100.00;99331.21;109583;1251;59908;-76
2024/04/22 10:15:54;;;;;;;4.90;4.20;;;;;;;7.96;100.00;99331.75;109268;1251;59804;-75
2024/04/22 10:18:20;;;;;;;5.60;4.20;;;;;;;7.84;100.00;99331.66;109557;1251;59737;-75
2024/04/22 10:20:48;;;;;;;6.60;4.60;;;;;;;7.73;100.00;99329.03;109568;1251;59966;-76
2024/04/22 10:23:15;;;;;;;5.80;5.00;;;;;;;7.65;100.00;99328.21;109507;1252;60566;-74
2024/04/22 10:25:41;;;;;;;5.50;4.50;;;;;;;7.63;100.00;99330.94;109270;1253;64067;-74
2024/04/22 10:28:08;;;;;;;5.60;4.10;;;;;;;7.63;100.00;99330.61;109437;1253;60174;-75
2024/04/22 10:30:36;;;;;;;5.40;4.50;;;;;;;7.59;100.00;99333.25;109425;1252;60015;-75
2024/04/22 10:33:05;;;;;;;5.40;4.60;;;;;;;7.56;100.00;99331.29;109319;1252;66961;-74
2024/04/22 10:35:33;;;;;;;5.90;4.30;;;;;;;7.75;100.00;99327.55;109183;1255;60446;-78
2024/04/22 10:37:59;;;;;;;5.30;4.70;;;;;;;7.80;100.00;99323.39;109197;1255;62493;-79
2024/04/22 10:40:26;;;;;;;8.40;4.60;;;;;;;7.74;100.00;99320.84;109173;1255;59847;-78
2024/04/22 10:42:52;;;;;;;5.50;4.60;;;;;;;7.82;100.00;99323.13;108989;1255;59888;-75
2024/04/22 10:45:22;;;;;;;6.90;4.90;;;;;;;8.02;100.00;99319.08;109185;1255;59844;-76
2024/04/22 10:47:51;;;;;;;6.40;4.80;;;;;;;8.15;100.00;99318.27;109203;1255;59905;-75
2024/04/22 10:50:20;;;;;;;5.20;4.20;;;;;;;8.20;100.00;99315.69;109161;1255;62885;-76
2024/04/22 10:52:47;;;;;;;5.10;3.90;;;;;;;8.24;100.00;99313.73;109056;1256;59866;-75
2024/04/22 10:55:14;;;;;;;4.00;3.60;;;;;;;8.31;100.00;99311.23;109224;1255;59726;-76
2024/04/22 10:57:40;;;;;;;3.90;3.50;;;;;;;8.57;100.00;99310.23;109215;1254;65312;-75
2024/04/22 11:00:07;;;;;;;5.80;3.80;;;;;;;8.75;100.00;99313.34;109201;1255;59820;-75
2024/04/22 11:02:34;;;;;;;6.10;4.80;;;;;;;8.82;100.00;99311.91;109155;1255;64050;-75
2024/04/22 11:05:02;;;;;;;5.80;3.90;;;;;;;9.02;100.00;99310.59;109171;1255;60092;-75
2024/04/22 11:07:30;;;;;;;4.90;3.70;;;;;;;9.35;100.00;99308.38;109351;1253;59857;-78
2024/04/22 11:09:58;;;;;;;5.10;3.50;;;;;;;9.41;100.00;99307.54;109357;1254;66831;-76
2024/04/22 11:12:25;;;;;;;5.50;4.00;;;;;;;9.28;100.00;99309.69;109277;1253;59903;-78
2024/04/22 11:14:52;;;;;;;6.30;4.90;;;;;;;9.09;100.00;99313.73;109379;1253;63775;-78
2024/04/22 11:17:20;;;;;;;5.80;4.50;;;;;;;8.86;100.00;99312.91;109237;1252;149645;-76